Time;durP1;ratioP1;P1;durP2;ratioP2;P2;SDS_P1;SDS_P2;PMS_P1;PMS_P2;Temp;Humidity;BMP_temperature;BMP_pressure;BME280_temperature;BME280_humidity;BME280_pressure;Samples;Min_cycle;Max_cycle;Signal;HPM_P1;HPM_P2
2023/04/07 00:01:27;;;;;;;5.65;2.72;;;;;;;;;;4993025;28;20042;-69
2023/04/07 00:03:53;;;;;;;6.95;3.13;;;;;;;;;;4989373;28;20485;-70
2023/04/07 00:06:18;;;;;;;6.60;3.55;;;;;;;;;;5010344;28;20041;-69
2023/04/07 00:08:43;;;;;;;5.30;2.90;;;;;;;;;;5005482;28;20029;-69
2023/04/07 00:11:09;;;;;;;7.20;3.03;;;;;;;;;;5002681;28;20061;-69
2023/04/07 00:13:34;;;;;;;7.05;3.22;;;;;;;;;;5005124;28;20096;-69
2023/04/07 00:15:59;;;;;;;6.85;3.20;;;;;;;;;;5005265;28;20057;-69
2023/04/07 00:18:25;;;;;;;5.82;2.83;;;;;;;;;;5003050;28;20417;-69
2023/04/07 00:20:50;;;;;;;6.07;3.03;;;;;;;;;;5008353;28;20412;-69
2023/04/07 00:23:16;;;;;;;9.32;3.38;;;;;;;;;;5003423;28;20683;-70
2023/04/07 00:25:41;;;;;;;6.38;3.40;;;;;;;;;;4998441;28;21020;-69
2023/04/07 00:28:06;;;;;;;8.73;3.67;;;;;;;;;;4993424;28;20034;-70
2023/04/07 00:30:32;;;;;;;7.63;3.42;;;;;;;;;;5004202;28;20088;-69
2023/04/07 00:32:57;;;;;;;8.13;3.63;;;;;;;;;;5004184;28;20083;-69
2023/04/07 00:35:22;;;;;;;7.10;3.67;;;;;;;;;;5002603;28;20077;-69
2023/04/07 00:37:48;;;;;;;11.63;4.00;;;;;;;;;;5006137;28;20038;-69
2023/04/07 00:40:13;;;;;;;7.55;3.45;;;;;;;;;;5007801;28;20045;-69
2023/04/07 00:42:38;;;;;;;8.90;3.70;;;;;;;;;;5007984;28;20513;-69
2023/04/07 00:45:04;;;;;;;9.38;3.30;;;;;;;;;;5006654;28;20614;-69
2023/04/07 00:47:30;;;;;;;6.10;3.78;;;;;;;;;;5003999;28;20493;-69
2023/04/07 00:49:55;;;;;;;9.35;3.33;;;;;;;;;;5005600;28;20053;-69
2023/04/07 00:52:27;;;;;;;7.40;4.03;;;;;;;;;;5005549;28;20695;-69
2023/04/07 00:54:54;;;;;;;8.60;4.07;;;;;;;;;;5007696;28;20111;-70
2023/04/07 00:57:19;;;;;;;8.70;3.60;;;;;;;;;;5007315;28;20046;-70
2023/04/07 00:59:45;;;;;;;8.32;3.60;;;;;;;;;;5007328;28;20424;-69
2023/04/07 01:02:15;;;;;;;9.98;4.10;;;;;;;;;;5005132;28;20038;-69
2023/04/07 01:04:46;;;;;;;9.95;4.28;;;;;;;;;;5003205;28;20046;-69
2023/04/07 01:07:20;;;;;;;6.97;3.45;;;;;;;;;;5002340;28;20045;-69
2023/04/07 01:09:51;;;;;;;9.07;4.10;;;;;;;;;;5009130;28;20118;-69
2023/04/07 01:12:30;;;;;;;9.80;3.92;;;;;;;;;;5006030;28;20125;-69
2023/04/07 01:14:59;;;;;;;9.05;4.10;;;;;;;;;;5007841;28;20037;-69
2023/04/07 01:17:27;;;;;;;9.77;4.32;;;;;;;;;;5003542;28;20102;-69
2023/04/07 01:20:00;;;;;;;8.95;3.67;;;;;;;;;;4997471;28;20038;-70
2023/04/07 01:22:32;;;;;;;10.77;3.53;;;;;;;;;;4989818;28;20118;-69
2023/04/07 01:25:16;;;;;;;11.70;3.72;;;;;;;;;;5002876;28;20038;-69
2023/04/07 01:27:54;;;;;;;9.60;4.30;;;;;;;;;;4986772;28;20045;-69
2023/04/07 01:30:20;;;;;;;10.48;3.95;;;;;;;;;;5004992;28;20412;-69
2023/04/07 01:32:50;;;;;;;7.10;3.33;;;;;;;;;;5005658;28;20037;-69
2023/04/07 01:35:17;;;;;;;7.90;3.83;;;;;;;;;;4986596;28;20046;-69
2023/04/07 01:37:47;;;;;;;8.57;3.90;;;;;;;;;;4987643;28;20038;-69
2023/04/07 01:40:14;;;;;;;10.68;4.18;;;;;;;;;;4987891;28;20042;-69
2023/04/07 01:42:41;;;;;;;8.05;3.90;;;;;;;;;;4991506;28;20461;-69
2023/04/07 01:45:07;;;;;;;10.30;4.43;;;;;;;;;;4992999;28;20056;-69
2023/04/07 01:47:36;;;;;;;9.75;3.92;;;;;;;;;;4992430;28;20084;-69
2023/04/07 01:50:05;;;;;;;8.00;4.00;;;;;;;;;;5000011;28;20398;-69
2023/04/07 01:52:33;;;;;;;8.05;3.60;;;;;;;;;;5002472;28;20689;-69
2023/04/07 01:54:58;;;;;;;9.07;3.72;;;;;;;;;;4998498;28;20042;-69
2023/04/07 01:57:24;;;;;;;12.88;4.30;;;;;;;;;;5006550;28;20903;-69
2023/04/07 01:59:49;;;;;;;7.03;3.63;;;;;;;;;;5007245;28;20494;-69
2023/04/07 02:02:14;;;;;;;7.10;4.32;;;;;;;;;;4999811;28;20034;-69
2023/04/07 02:04:51;;;;;;;9.75;4.13;;;;;;;;;;5005887;28;20065;-70
2023/04/07 02:07:34;;;;;;;8.05;4.10;;;;;;;;;;5005894;28;20568;-69
2023/04/07 02:10:02;;;;;;;10.10;4.33;;;;;;;;;;5006247;28;20054;-69
2023/04/07 02:12:29;;;;;;;9.95;4.85;;;;;;;;;;5006192;28;20147;-69
2023/04/07 02:14:55;;;;;;;9.15;5.10;;;;;;;;;;4991617;28;20744;-69
2023/04/07 02:17:23;;;;;;;10.30;4.65;;;;;;;;;;4999093;28;20089;-69
2023/04/07 02:19:51;;;;;;;11.18;4.82;;;;;;;;;;5002045;28;20057;-69
2023/04/07 02:22:17;;;;;;;11.55;5.10;;;;;;;;;;5004102;28;20185;-69
2023/04/07 02:24:42;;;;;;;11.55;5.20;;;;;;;;;;5004863;28;20125;-69
2023/04/07 02:27:08;;;;;;;15.00;6.03;;;;;;;;;;5005826;28;20026;-69
2023/04/07 02:29:33;;;;;;;16.13;6.07;;;;;;;;;;5006644;28;20519;-69
2023/04/07 02:31:58;;;;;;;19.50;6.38;;;;;;;;;;5004914;28;20525;-70
2023/04/07 02:34:24;;;;;;;16.88;6.63;;;;;;;;;;5000385;28;20042;-69
2023/04/07 02:36:50;;;;;;;19.35;7.00;;;;;;;;;;5008635;28;20429;-69
2023/04/07 02:39:15;;;;;;;19.52;7.00;;;;;;;;;;5005026;28;20040;-69
2023/04/07 02:41:41;;;;;;;14.52;6.72;;;;;;;;;;5005835;28;20486;-69
2023/04/07 02:44:06;;;;;;;16.58;6.57;;;;;;;;;;5005572;28;20042;-69
2023/04/07 02:46:31;;;;;;;17.98;7.10;;;;;;;;;;5002007;28;20070;-69
2023/04/07 02:48:56;;;;;;;18.17;7.55;;;;;;;;;;5002919;28;20069;-69
2023/04/07 02:51:22;;;;;;;14.73;7.32;;;;;;;;;;4994190;28;20061;-69
2023/04/07 02:53:47;;;;;;;15.07;6.55;;;;;;;;;;4997404;28;20029;-69
2023/04/07 02:56:12;;;;;;;18.05;7.93;;;;;;;;;;5005681;28;20034;-69
2023/04/07 02:58:38;;;;;;;23.08;9.50;;;;;;;;;;4991596;28;20709;-69
2023/04/07 03:01:04;;;;;;;19.45;7.80;;;;;;;;;;5003335;28;20517;-69
2023/04/07 03:03:29;;;;;;;17.58;7.82;;;;;;;;;;5006093;28;20092;-69
2023/04/07 03:05:54;;;;;;;12.13;6.03;;;;;;;;;;5004524;28;20029;-69
2023/04/07 03:08:20;;;;;;;15.43;6.03;;;;;;;;;;5007301;28;20037;-69
2023/04/07 03:10:45;;;;;;;15.07;6.35;;;;;;;;;;5024347;28;20487;-69
2023/04/07 03:13:15;;;;;;;15.38;6.05;;;;;;;;;;5023438;28;20033;-69
2023/04/07 03:15:40;;;;;;;14.57;5.97;;;;;;;;;;5013777;28;20591;-69
2023/04/07 03:18:05;;;;;;;9.60;4.78;;;;;;;;;;5004986;28;20030;-69
2023/04/07 03:20:31;;;;;;;10.60;4.75;;;;;;;;;;5004949;28;20134;-69
2023/04/07 03:22:56;;;;;;;9.93;4.07;;;;;;;;;;5004548;28;20057;-69
2023/04/07 03:25:22;;;;;;;6.65;3.97;;;;;;;;;;5007450;28;20164;-69
2023/04/07 03:27:47;;;;;;;9.00;4.35;;;;;;;;;;5002862;28;20044;-69
2023/04/07 03:30:12;;;;;;;10.45;4.45;;;;;;;;;;4998051;28;20444;-69
2023/04/07 03:32:38;;;;;;;15.27;5.40;;;;;;;;;;5000689;28;20049;-69
2023/04/07 03:35:03;;;;;;;11.27;5.53;;;;;;;;;;5014674;28;20505;-69
2023/04/07 03:37:29;;;;;;;13.43;5.20;;;;;;;;;;5023724;28;20095;-70
2023/04/07 03:39:54;;;;;;;11.48;5.47;;;;;;;;;;5020072;28;20048;-69
2023/04/07 03:42:19;;;;;;;13.55;5.35;;;;;;;;;;4997798;28;20066;-69
2023/04/07 03:44:45;;;;;;;17.67;6.95;;;;;;;;;;4999199;28;20026;-69
2023/04/07 03:47:10;;;;;;;16.48;6.72;;;;;;;;;;4997457;28;20066;-69
2023/04/07 03:49:37;;;;;;;19.75;6.65;;;;;;;;;;5010563;28;20049;-69
2023/04/07 03:52:03;;;;;;;16.98;7.50;;;;;;;;;;5006478;28;20034;-69
2023/04/07 03:54:29;;;;;;;17.70;7.15;;;;;;;;;;5003673;28;20084;-69
2023/04/07 03:56:56;;;;;;;15.10;7.05;;;;;;;;;;5003925;28;20038;-69
2023/04/07 03:59:21;;;;;;;18.33;7.68;;;;;;;;;;5000974;28;20561;-69
2023/04/07 04:01:47;;;;;;;17.70;7.65;;;;;;;;;;5004687;28;20093;-69
2023/04/07 04:04:12;;;;;;;24.13;8.45;;;;;;;;;;5004629;28;20054;-69
2023/04/07 04:06:37;;;;;;;18.00;7.75;;;;;;;;;;5004632;28;20074;-69
2023/04/07 04:09:04;;;;;;;21.02;8.13;;;;;;;;;;5001271;28;20101;-69
2023/04/07 04:11:30;;;;;;;23.42;8.45;;;;;;;;;;4996517;28;20948;-69
2023/04/07 04:13:55;;;;;;;20.10;8.00;;;;;;;;;;5001817;28;20038;-69
2023/04/07 04:16:21;;;;;;;18.10;7.70;;;;;;;;;;5008086;28;20033;-69
2023/04/07 04:18:46;;;;;;;15.60;7.28;;;;;;;;;;5008871;28;20037;-69
2023/04/07 04:21:11;;;;;;;18.45;7.82;;;;;;;;;;5008600;28;20842;-69
2023/04/07 04:23:37;;;;;;;15.75;7.07;;;;;;;;;;5009295;28;20109;-69
2023/04/07 04:26:02;;;;;;;19.15;8.05;;;;;;;;;;5005829;28;20052;-69
2023/04/07 04:28:28;;;;;;;16.08;6.80;;;;;;;;;;4999841;28;20556;-69
2023/04/07 04:30:54;;;;;;;14.65;6.90;;;;;;;;;;5014214;28;20061;-69
2023/04/07 04:33:19;;;;;;;16.40;7.43;;;;;;;;;;5011941;28;20079;-69
2023/04/07 04:35:45;;;;;;;15.25;7.53;;;;;;;;;;5004410;28;20026;-70
2023/04/07 04:38:10;;;;;;;16.95;7.65;;;;;;;;;;5001696;28;20034;-69
2023/04/07 04:40:36;;;;;;;14.38;6.45;;;;;;;;;;4994469;28;20041;-69
2023/04/07 04:43:05;;;;;;;18.33;7.18;;;;;;;;;;5007694;28;20517;-69
2023/04/07 04:45:31;;;;;;;19.08;7.97;;;;;;;;;;5007900;28;20070;-69
2023/04/07 04:47:56;;;;;;;13.02;6.55;;;;;;;;;;5000117;28;20040;-69
2023/04/07 04:50:22;;;;;;;16.05;7.45;;;;;;;;;;5000999;28;20086;-70
2023/04/07 04:52:47;;;;;;;18.08;8.00;;;;;;;;;;5003672;28;20034;-69
2023/04/07 04:55:12;;;;;;;12.75;6.57;;;;;;;;;;5002325;28;20040;-69
2023/04/07 04:57:38;;;;;;;15.93;6.85;;;;;;;;;;5012190;28;20044;-69
2023/04/07 05:00:06;;;;;;;13.52;6.43;;;;;;;;;;5027525;28;20026;-69
2023/04/07 05:02:32;;;;;;;16.02;6.65;;;;;;;;;;5026616;28;20821;-69
2023/04/07 05:04:57;;;;;;;17.45;7.22;;;;;;;;;;4998026;28;20030;-69
2023/04/07 05:07:23;;;;;;;14.48;7.13;;;;;;;;;;5005135;28;20497;-69
2023/04/07 05:09:48;;;;;;;13.35;6.95;;;;;;;;;;5005960;28;20089;-69
2023/04/07 05:12:14;;;;;;;18.15;7.20;;;;;;;;;;5007122;28;20486;-69
2023/04/07 05:14:39;;;;;;;16.98;6.97;;;;;;;;;;5007777;28;20033;-69
2023/04/07 05:17:05;;;;;;;15.02;7.55;;;;;;;;;;5007242;28;20112;-69
2023/04/07 05:19:31;;;;;;;13.85;6.65;;;;;;;;;;5001189;28;20037;-69
2023/04/07 05:21:56;;;;;;;14.23;7.00;;;;;;;;;;5000626;28;20104;-69
2023/04/07 05:24:22;;;;;;;16.20;7.28;;;;;;;;;;5002977;28;20541;-69
2023/04/07 05:26:47;;;;;;;19.38;7.25;;;;;;;;;;5007887;28;20022;-69
2023/04/07 05:29:12;;;;;;;15.00;6.35;;;;;;;;;;5006911;28;20091;-69
2023/04/07 05:31:39;;;;;;;12.82;6.65;;;;;;;;;;4995265;28;20046;-69
2023/04/07 05:34:04;;;;;;;18.13;7.68;;;;;;;;;;4995219;28;20058;-69
2023/04/07 05:36:30;;;;;;;18.70;7.03;;;;;;;;;;5003796;28;20537;-69
2023/04/07 05:38:55;;;;;;;18.45;6.70;;;;;;;;;;5007687;28;20041;-69
2023/04/07 05:41:21;;;;;;;14.18;6.38;;;;;;;;;;5006574;28;20041;-69
2023/04/07 05:43:46;;;;;;;19.30;6.90;;;;;;;;;;5007049;28;20046;-69
2023/04/07 05:46:11;;;;;;;13.77;7.00;;;;;;;;;;5001690;28;20057;-69
2023/04/07 05:48:37;;;;;;;20.67;7.30;;;;;;;;;;5002176;28;20247;-69
2023/04/07 05:51:02;;;;;;;14.85;7.28;;;;;;;;;;4999055;28;20053;-69
2023/04/07 05:53:28;;;;;;;20.25;9.40;;;;;;;;;;5007631;28;20034;-69
2023/04/07 05:55:53;;;;;;;14.32;6.47;;;;;;;;;;4998024;28;20046;-69
2023/04/07 05:58:19;;;;;;;16.30;6.88;;;;;;;;;;4997347;28;20142;-69
2023/04/07 06:00:44;;;;;;;14.77;6.93;;;;;;;;;;5002134;28;20452;-69
2023/04/07 06:03:10;;;;;;;13.98;6.57;;;;;;;;;;4993109;28;20034;-69
2023/04/07 06:05:35;;;;;;;20.52;7.20;;;;;;;;;;5002486;28;20022;-70
2023/04/07 06:08:00;;;;;;;13.48;6.95;;;;;;;;;;5006449;28;20131;-70
2023/04/07 06:10:26;;;;;;;17.65;6.90;;;;;;;;;;5005119;28;20104;-70
2023/04/07 06:12:51;;;;;;;13.93;6.65;;;;;;;;;;5005734;28;20077;-70
2023/04/07 06:15:17;;;;;;;16.63;8.27;;;;;;;;;;5006454;28;20103;-70
2023/04/07 06:17:44;;;;;;;14.60;6.65;;;;;;;;;;5003455;28;20428;-70
2023/04/07 06:20:10;;;;;;;13.27;6.75;;;;;;;;;;5002471;28;20044;-70
2023/04/07 06:22:35;;;;;;;13.82;5.85;;;;;;;;;;5008386;28;20037;-70
2023/04/07 06:25:01;;;;;;;15.10;6.93;;;;;;;;;;4995649;28;20065;-69
2023/04/07 06:27:27;;;;;;;20.23;8.10;;;;;;;;;;4999511;28;20417;-71
2023/04/07 06:29:52;;;;;;;21.33;7.72;;;;;;;;;;4999556;28;20061;-71
2023/04/07 06:32:19;;;;;;;17.30;8.32;;;;;;;;;;5002544;28;20029;-73
2023/04/07 06:34:44;;;;;;;21.13;7.30;;;;;;;;;;5001324;28;20034;-69
2023/04/07 06:37:10;;;;;;;18.52;9.23;;;;;;;;;;5005233;28;20038;-70
2023/04/07 06:39:37;;;;;;;18.10;8.23;;;;;;;;;;5007417;28;20049;-70
2023/04/07 06:42:02;;;;;;;17.38;7.55;;;;;;;;;;5006952;28;20069;-70
2023/04/07 06:44:27;;;;;;;21.52;7.97;;;;;;;;;;5006299;28;20069;-70
2023/04/07 06:46:54;;;;;;;15.60;7.75;;;;;;;;;;5001712;28;20041;-70
2023/04/07 06:49:19;;;;;;;22.67;8.95;;;;;;;;;;4998677;28;21007;-70
2023/04/07 06:51:45;;;;;;;21.85;8.43;;;;;;;;;;5005022;28;20505;-69
2023/04/07 06:54:12;;;;;;;21.60;8.63;;;;;;;;;;5007109;28;20041;-69
2023/04/07 06:56:38;;;;;;;18.00;8.18;;;;;;;;;;5003282;28;20647;-69
2023/04/07 06:59:04;;;;;;;18.13;8.15;;;;;;;;;;4997127;28;20971;-69
2023/04/07 07:01:29;;;;;;;21.40;8.07;;;;;;;;;;4996305;28;20501;-69
2023/04/07 07:03:54;;;;;;;21.92;8.25;;;;;;;;;;5001300;28;20129;-69
2023/04/07 07:06:20;;;;;;;21.58;8.57;;;;;;;;;;5025744;28;20132;-69
2023/04/07 07:08:45;;;;;;;18.60;7.43;;;;;;;;;;5022707;28;20107;-69
2023/04/07 07:11:10;;;;;;;18.92;7.85;;;;;;;;;;5000474;28;20682;-69
2023/04/07 07:13:36;;;;;;;18.58;7.80;;;;;;;;;;5001940;28;20122;-69
2023/04/07 07:16:01;;;;;;;18.27;7.68;;;;;;;;;;5005302;28;20037;-68
2023/04/07 07:18:26;;;;;;;23.20;8.27;;;;;;;;;;5010962;28;20050;-69
2023/04/07 07:20:52;;;;;;;18.52;6.95;;;;;;;;;;5020850;28;20472;-69
2023/04/07 07:23:17;;;;;;;15.45;6.43;;;;;;;;;;5015313;28;20041;-68
2023/04/07 07:25:42;;;;;;;17.02;6.95;;;;;;;;;;5006792;28;20946;-69
2023/04/07 07:28:08;;;;;;;10.90;4.53;;;;;;;;;;5006304;28;20038;-69
2023/04/07 07:30:33;;;;;;;16.15;6.05;;;;;;;;;;5007194;28;20048;-69
2023/04/07 07:32:59;;;;;;;20.58;7.53;;;;;;;;;;5006109;28;20099;-69
2023/04/07 07:35:24;;;;;;;12.80;5.68;;;;;;;;;;5005859;28;20038;-69
2023/04/07 07:37:51;;;;;;;11.80;5.35;;;;;;;;;;5005521;28;20579;-69
2023/04/07 07:40:16;;;;;;;12.15;5.88;;;;;;;;;;5005500;28;20066;-69
2023/04/07 07:42:42;;;;;;;12.70;5.38;;;;;;;;;;4995795;28;20054;-69
2023/04/07 07:45:07;;;;;;;15.70;5.85;;;;;;;;;;4985596;28;20046;-69
2023/04/07 07:47:33;;;;;;;13.38;5.88;;;;;;;;;;4989094;28;20053;-68
2023/04/07 07:49:58;;;;;;;13.88;5.85;;;;;;;;;;4990370;28;20049;-68
2023/04/07 07:52:23;;;;;;;14.88;5.30;;;;;;;;;;5012346;28;20051;-68
2023/04/07 07:54:49;;;;;;;12.82;5.65;;;;;;;;;;5016341;28;20044;-68
2023/04/07 07:57:15;;;;;;;14.27;6.00;;;;;;;;;;5009773;28;20579;-69
2023/04/07 07:59:40;;;;;;;11.93;5.40;;;;;;;;;;5009907;28;20069;-69
2023/04/07 08:02:07;;;;;;;13.32;4.15;;;;;;;;;;5004398;28;20052;-71
2023/04/07 08:04:32;;;;;;;8.82;4.90;;;;;;;;;;4998814;28;20113;-71
2023/04/07 08:06:58;;;;;;;11.48;4.63;;;;;;;;;;5001805;28;20136;-71
2023/04/07 08:09:23;;;;;;;9.43;4.38;;;;;;;;;;5009299;28;20034;-70
2023/04/07 08:11:49;;;;;;;12.77;4.93;;;;;;;;;;5006156;28;20513;-70
2023/04/07 08:14:16;;;;;;;12.95;5.10;;;;;;;;;;4997208;28;20042;-70
2023/04/07 08:16:41;;;;;;;10.02;3.97;;;;;;;;;;5003474;28;20034;-70
2023/04/07 08:19:06;;;;;;;10.00;4.10;;;;;;;;;;5005875;28;20044;-70
2023/04/07 08:21:32;;;;;;;8.45;3.50;;;;;;;;;;5006889;28;20042;-70
2023/04/07 08:23:57;;;;;;;9.82;4.28;;;;;;;;;;5005522;28;20033;-70
2023/04/07 08:26:23;;;;;;;17.88;4.97;;;;;;;;;;5006625;28;20065;-69
2023/04/07 08:28:52;;;;;;;14.13;4.82;;;;;;;;;;5006250;28;20092;-70
2023/04/07 08:31:17;;;;;;;6.70;4.05;;;;;;;;;;5006292;28;20025;-69
2023/04/07 08:33:42;;;;;;;10.43;4.53;;;;;;;;;;5009076;28;20034;-70
2023/04/07 08:36:08;;;;;;;9.23;4.72;;;;;;;;;;5007220;28;20046;-70
2023/04/07 08:38:33;;;;;;;11.73;5.28;;;;;;;;;;5010081;28;20113;-70
2023/04/07 08:41:11;;;;;;;10.02;4.95;;;;;;;;;;5013100;28;20022;-71
2023/04/07 08:43:37;;;;;;;11.13;5.65;;;;;;;;;;5008258;28;20028;-70
2023/04/07 08:46:03;;;;;;;14.95;5.93;;;;;;;;;;5008031;28;20056;-70
2023/04/07 08:48:32;;;;;;;16.77;5.47;;;;;;;;;;5006398;28;20045;-70
2023/04/07 08:51:04;;;;;;;9.52;5.18;;;;;;;;;;5007362;28;20041;-70
2023/04/07 08:53:36;;;;;;;9.98;5.38;;;;;;;;;;5006975;28;20034;-70
2023/04/07 08:56:05;;;;;;;15.07;4.20;;;;;;;;;;5007545;28;20489;-69
2023/04/07 08:58:30;;;;;;;10.68;4.05;;;;;;;;;;5011397;28;20014;-69
2023/04/07 09:00:56;;;;;;;9.30;4.30;;;;;;;;;;5006714;28;20041;-69
2023/04/07 09:03:22;;;;;;;7.90;3.70;;;;;;;;;;5006492;28;20389;-70
2023/04/07 09:05:48;;;;;;;11.85;3.92;;;;;;;;;;5004738;28;20757;-69
2023/04/07 09:08:13;;;;;;;9.52;3.95;;;;;;;;;;5009324;28;20086;-69
2023/04/07 09:10:39;;;;;;;11.77;4.63;;;;;;;;;;5007048;28;20050;-70
2023/04/07 09:13:04;;;;;;;14.23;4.30;;;;;;;;;;5005957;28;20026;-70
2023/04/07 09:15:30;;;;;;;4.75;3.17;;;;;;;;;;5006487;28;20034;-70
2023/04/07 09:17:57;;;;;;;8.20;4.60;;;;;;;;;;5003723;28;20038;-70
2023/04/07 09:20:22;;;;;;;9.05;3.28;;;;;;;;;;5005241;28;20109;-70
2023/04/07 09:22:49;;;;;;;9.57;3.35;;;;;;;;;;5005210;28;20120;-70
2023/04/07 09:25:25;;;;;;;9.30;3.50;;;;;;;;;;5005663;28;20049;-72
2023/04/07 09:27:56;;;;;;;8.13;3.55;;;;;;;;;;5005210;28;20034;-69
2023/04/07 09:30:22;;;;;;;5.15;2.70;;;;;;;;;;5006229;28;20037;-69
2023/04/07 09:32:47;;;;;;;4.80;2.30;;;;;;;;;;5005904;28;20053;-69
2023/04/07 09:35:12;;;;;;;4.82;2.30;;;;;;;;;;5006767;28;20034;-69
2023/04/07 09:37:38;;;;;;;7.05;2.97;;;;;;;;;;5006510;28;20053;-70
2023/04/07 09:40:04;;;;;;;7.28;2.65;;;;;;;;;;5005816;28;20026;-69
2023/04/07 09:42:34;;;;;;;6.38;3.00;;;;;;;;;;5001599;28;20125;-69
2023/04/07 09:45:00;;;;;;;5.65;2.78;;;;;;;;;;5005770;28;20030;-71
2023/04/07 09:47:30;;;;;;;5.43;3.30;;;;;;;;;;5005687;28;20045;-71
2023/04/07 09:49:56;;;;;;;6.57;2.70;;;;;;;;;;5004847;28;20022;-71
2023/04/07 09:52:25;;;;;;;6.22;3.03;;;;;;;;;;5007213;28;20025;-69
2023/04/07 09:54:51;;;;;;;10.27;3.30;;;;;;;;;;5003154;28;20077;-69
2023/04/07 09:57:17;;;;;;;6.38;2.60;;;;;;;;;;5004373;28;20034;-70
2023/04/07 09:59:43;;;;;;;8.02;2.88;;;;;;;;;;5006395;28;20417;-69
2023/04/07 10:02:10;;;;;;;8.70;3.95;;;;;;;;;;5009140;28;20037;-69
2023/04/07 10:04:36;;;;;;;5.97;3.05;;;;;;;;;;5011652;28;20073;-69
2023/04/07 10:07:02;;;;;;;7.50;2.63;;;;;;;;;;5006811;28;20037;-69
2023/04/07 10:09:28;;;;;;;6.78;2.55;;;;;;;;;;5004049;28;20026;-70
2023/04/07 10:11:56;;;;;;;8.93;2.50;;;;;;;;;;5005613;28;20076;-70
2023/04/07 10:14:25;;;;;;;8.70;2.40;;;;;;;;;;5003574;28;20034;-71
2023/04/07 10:16:51;;;;;;;4.10;2.40;;;;;;;;;;5004418;28;20590;-70
2023/04/07 10:19:18;;;;;;;4.72;2.65;;;;;;;;;;5005803;28;20017;-70
2023/04/07 10:21:43;;;;;;;6.15;2.72;;;;;;;;;;5005590;28;20041;-70
2023/04/07 10:24:28;;;;;;;9.15;2.75;;;;;;;;;;5005042;28;20026;-70
2023/04/07 10:26:56;;;;;;;3.47;1.92;;;;;;;;;;5005708;28;20040;-70
2023/04/07 10:29:24;;;;;;;4.95;2.17;;;;;;;;;;5002791;28;20037;-70
2023/04/07 10:31:50;;;;;;;5.80;2.67;;;;;;;;;;5004262;28;20308;-70
2023/04/07 10:34:17;;;;;;;7.57;2.50;;;;;;;;;;5006365;28;20030;-70
2023/04/07 10:37:10;;;;;;;7.00;2.47;;;;;;;;;;5005475;28;20030;-69
2023/04/07 10:39:36;;;;;;;5.90;2.30;;;;;;;;;;5003867;28;20030;-68
2023/04/07 10:42:02;;;;;;;6.43;2.50;;;;;;;;;;5001718;28;20046;-69
2023/04/07 10:44:39;;;;;;;4.95;2.35;;;;;;;;;;5004135;28;20822;-70
2023/04/07 10:47:05;;;;;;;2.75;1.67;;;;;;;;;;5004642;28;20022;-70
2023/04/07 10:49:33;;;;;;;2.83;1.52;;;;;;;;;;5004430;28;20112;-70
2023/04/07 10:52:10;;;;;;;2.83;1.23;;;;;;;;;;5004194;28;20040;-71
2023/04/07 10:54:36;;;;;;;2.47;1.15;;;;;;;;;;5003986;28;20536;-70
2023/04/07 10:57:01;;;;;;;3.03;1.38;;;;;;;;;;5005583;28;20034;-70
2023/04/07 10:59:31;;;;;;;2.75;1.50;;;;;;;;;;5003503;28;20568;-70
2023/04/07 11:02:11;;;;;;;4.45;1.60;;;;;;;;;;5005416;28;20467;-70
2023/04/07 11:04:38;;;;;;;2.88;1.70;;;;;;;;;;5003167;28;20030;-70
2023/04/07 11:07:03;;;;;;;4.18;1.50;;;;;;;;;;5005597;28;20079;-69
2023/04/07 11:09:29;;;;;;;2.35;1.55;;;;;;;;;;5004623;28;20061;-69
2023/04/07 11:11:54;;;;;;;5.90;1.70;;;;;;;;;;5003089;28;20076;-71
2023/04/07 11:14:27;;;;;;;1.98;1.30;;;;;;;;;;5005257;28;20394;-69
2023/04/07 11:16:52;;;;;;;4.57;1.60;;;;;;;;;;5003877;28;20022;-69
2023/04/07 11:19:18;;;;;;;3.95;1.75;;;;;;;;;;4998480;28;20029;-70
2023/04/07 11:21:44;;;;;;;2.83;1.80;;;;;;;;;;4996671;28;20415;-69
2023/04/07 11:24:10;;;;;;;2.30;1.63;;;;;;;;;;5000045;28;20037;-69
2023/04/07 11:26:40;;;;;;;2.10;1.30;;;;;;;;;;5009839;28;20444;-69
2023/04/07 11:29:06;;;;;;;4.57;2.15;;;;;;;;;;5007377;28;20036;-69
2023/04/07 11:31:32;;;;;;;3.80;1.75;;;;;;;;;;5005604;28;20525;-69
2023/04/07 11:34:03;;;;;;;2.95;1.77;;;;;;;;;;5004217;28;20030;-71
2023/04/07 11:36:38;;;;;;;3.80;2.08;;;;;;;;;;5019152;28;20041;-71
2023/04/07 11:39:04;;;;;;;7.13;2.28;;;;;;;;;;5016619;28;20034;-71
2023/04/07 11:41:31;;;;;;;6.53;2.38;;;;;;;;;;5013181;28;20586;-71
2023/04/07 11:44:25;;;;;;;3.85;1.83;;;;;;;;;;5025451;28;20515;-70
2023/04/07 11:46:53;;;;;;;3.85;1.75;;;;;;;;;;5021182;28;20042;-71
2023/04/07 11:49:19;;;;;;;6.13;1.77;;;;;;;;;;5025980;28;20492;-71
2023/04/07 11:51:45;;;;;;;3.17;1.63;;;;;;;;;;5025892;28;20029;-71
2023/04/07 11:54:11;;;;;;;2.10;1.50;;;;;;;;;;5025099;28;20057;-68
2023/04/07 11:56:45;;;;;;;3.28;1.50;;;;;;;;;;5016550;28;20100;-68
2023/04/07 11:59:21;;;;;;;4.35;2.03;;;;;;;;;;5024119;28;20033;-68
2023/04/07 12:01:48;;;;;;;3.28;1.65;;;;;;;;;;5025352;28;20025;-68
2023/04/07 12:04:17;;;;;;;8.20;2.30;;;;;;;;;;5018791;28;20014;-68
2023/04/07 12:06:44;;;;;;;8.80;1.90;;;;;;;;;;5005928;28;20123;-68
2023/04/07 12:09:42;;;;;;;11.90;4.47;;;;;;;;;;5006272;28;20042;-68
2023/04/07 12:12:09;;;;;;;8.25;2.50;;;;;;;;;;4982306;28;20079;-68
2023/04/07 12:14:34;;;;;;;5.50;2.13;;;;;;;;;;5005083;28;20044;-68
2023/04/07 12:17:02;;;;;;;4.07;1.88;;;;;;;;;;5006522;28;20401;-69
2023/04/07 12:19:28;;;;;;;6.13;2.10;;;;;;;;;;5008704;28;20544;-68
2023/04/07 12:21:55;;;;;;;7.00;2.15;;;;;;;;;;5005645;28;20460;-69
2023/04/07 12:24:21;;;;;;;7.57;2.22;;;;;;;;;;5002069;28;20088;-68
2023/04/07 12:26:47;;;;;;;4.03;1.77;;;;;;;;;;4993652;28;20041;-68
2023/04/07 12:29:13;;;;;;;6.43;2.45;;;;;;;;;;4997765;28;20041;-68
2023/04/07 12:31:38;;;;;;;4.80;1.73;;;;;;;;;;4988242;28;20031;-68
2023/04/07 12:34:03;;;;;;;3.03;1.23;;;;;;;;;;4988095;28;20042;-68
2023/04/07 12:36:30;;;;;;;3.65;1.73;;;;;;;;;;4989724;28;20038;-68
2023/04/07 12:38:56;;;;;;;1.42;1.13;;;;;;;;;;5003444;28;20045;-67
2023/04/07 12:41:23;;;;;;;3.95;1.48;;;;;;;;;;5009076;28;20056;-68
2023/04/07 12:43:49;;;;;;;7.57;1.48;;;;;;;;;;5008165;28;20069;-68
2023/04/07 12:46:14;;;;;;;1.73;1.10;;;;;;;;;;5010247;28;20033;-68
2023/04/07 12:48:40;;;;;;;2.03;1.02;;;;;;;;;;5010508;28;20095;-67
2023/04/07 12:51:05;;;;;;;1.42;0.95;;;;;;;;;;5012916;28;20531;-68
2023/04/07 12:53:31;;;;;;;1.65;0.80;;;;;;;;;;5008643;28;20038;-68
2023/04/07 12:55:56;;;;;;;1.02;0.73;;;;;;;;;;5007710;28;20030;-67
2023/04/07 12:58:22;;;;;;;2.67;0.95;;;;;;;;;;5009615;28;20040;-67
2023/04/07 13:00:47;;;;;;;2.80;0.75;;;;;;;;;;5008124;28;20409;-68
2023/04/07 13:03:13;;;;;;;1.48;1.00;;;;;;;;;;5007860;28;20575;-68
2023/04/07 13:05:38;;;;;;;3.80;1.05;;;;;;;;;;5008554;28;20038;-68
2023/04/07 13:08:04;;;;;;;1.52;0.90;;;;;;;;;;5009488;28;20025;-68
2023/04/07 13:10:29;;;;;;;4.70;1.48;;;;;;;;;;5007197;28;20046;-68
2023/04/07 13:12:54;;;;;;;4.47;1.15;;;;;;;;;;5009485;28;20041;-68
2023/04/07 13:15:20;;;;;;;3.35;0.98;;;;;;;;;;5008845;28;20046;-68
2023/04/07 13:17:46;;;;;;;4.05;1.10;;;;;;;;;;5017407;28;20171;-68
2023/04/07 13:20:11;;;;;;;1.17;0.88;;;;;;;;;;5023831;28;20033;-67
2023/04/07 13:22:37;;;;;;;4.15;1.00;;;;;;;;;;5024684;28;20029;-68
2023/04/07 13:25:02;;;;;;;1.52;1.00;;;;;;;;;;5027611;28;20164;-67
2023/04/07 13:27:27;;;;;;;3.53;0.85;;;;;;;;;;5027528;28;20041;-68
2023/04/07 13:29:53;;;;;;;5.60;1.00;;;;;;;;;;5009529;28;20033;-67
2023/04/07 13:32:18;;;;;;;1.35;0.63;;;;;;;;;;5008233;28;20057;-67
2023/04/07 13:34:44;;;;;;;4.10;2.50;;;;;;;;;;5003713;28;20033;-67
2023/04/07 13:37:09;;;;;;;1.05;0.80;;;;;;;;;;5007806;28;20042;-68
2023/04/07 13:39:35;;;;;;;4.72;1.13;;;;;;;;;;5008210;28;20041;-68
2023/04/07 13:42:00;;;;;;;4.30;1.10;;;;;;;;;;5009491;28;20045;-68
2023/04/07 13:44:27;;;;;;;1.98;0.90;;;;;;;;;;5005290;28;20038;-67
2023/04/07 13:46:53;;;;;;;2.10;0.90;;;;;;;;;;5006950;28;20034;-68
2023/04/07 13:49:18;;;;;;;3.72;1.20;;;;;;;;;;5007225;28;20075;-68
2023/04/07 13:51:44;;;;;;;0.73;0.70;;;;;;;;;;5007033;28;20041;-68
2023/04/07 13:54:09;;;;;;;1.60;0.90;;;;;;;;;;5002534;28;20050;-68
2023/04/07 13:56:37;;;;;;;3.75;1.45;;;;;;;;;;4999393;28;20114;-67
2023/04/07 13:59:06;;;;;;;2.00;1.10;;;;;;;;;;4985566;28;20030;-68
2023/04/07 14:01:32;;;;;;;2.75;1.10;;;;;;;;;;4987155;28;20036;-68
2023/04/07 14:03:58;;;;;;;6.10;1.00;;;;;;;;;;4992179;28;20026;-68
2023/04/07 14:06:23;;;;;;;3.65;1.00;;;;;;;;;;5005531;28;20042;-67
2023/04/07 14:08:50;;;;;;;2.47;1.30;;;;;;;;;;5007628;28;20046;-68
2023/04/07 14:11:16;;;;;;;3.10;1.42;;;;;;;;;;5009146;28;20077;-68
2023/04/07 14:13:42;;;;;;;3.97;1.60;;;;;;;;;;5009914;28;20037;-68
2023/04/07 14:16:08;;;;;;;7.13;1.75;;;;;;;;;;5005452;28;20041;-68
2023/04/07 14:18:33;;;;;;;3.00;1.42;;;;;;;;;;4999467;28;20085;-68
2023/04/07 14:20:59;;;;;;;3.38;1.67;;;;;;;;;;5004604;28;20080;-67
2023/04/07 14:23:24;;;;;;;7.63;1.63;;;;;;;;;;5006321;28;20574;-68
2023/04/07 14:25:50;;;;;;;3.00;1.40;;;;;;;;;;5005731;28;20044;-68
2023/04/07 14:28:15;;;;;;;5.60;1.40;;;;;;;;;;5006233;28;20057;-68
2023/04/07 14:30:40;;;;;;;2.03;0.90;;;;;;;;;;5001609;28;20173;-67
2023/04/07 14:33:06;;;;;;;2.33;1.00;;;;;;;;;;4992809;28;20128;-68